Time;durP1;ratioP1;P1;durP2;ratioP2;P2;SDS_P1;SDS_P2;PMS_P1;PMS_P2;Temp;Humidity;BMP_temperature;BMP_pressure;BME280_temperature;BME280_humidity;BME280_pressure;Samples;Min_cycle;Max_cycle;Signal;HPM_P1;HPM_P2
2022/01/21 00:01:21;;;;;;;6.22;2.50;;;1.50;99.90;;;;;;5098321;27;20480;-85
2022/01/21 00:03:48;;;;;;;1.05;0.90;;;1.40;99.90;;;;;;5098028;27;20130;-85
2022/01/21 00:06:13;;;;;;;2.28;1.02;;;1.40;99.90;;;;;;5097799;27;20046;-85
2022/01/21 00:08:42;;;;;;;0.40;0.40;;;2.30;99.90;;;;;;5115401;27;20039;-85
2022/01/21 00:11:08;;;;;;;0.50;0.50;;;1.40;99.90;;;;;;5114919;27;20039;-85
2022/01/21 00:13:34;;;;;;;2.13;0.73;;;1.50;99.90;;;;;;5098050;27;20084;-85
2022/01/21 00:16:07;;;;;;;2.95;0.75;;;1.40;99.90;;;;;;5081410;27;20622;-85
2022/01/21 00:18:35;;;;;;;1.05;0.68;;;1.50;99.90;;;;;;5097566;27;20088;-85
2022/01/21 00:31:59;;;;;;;0.60;0.50;;;2.00;99.90;;;;;;5114321;27;20480;-85
2022/01/21 00:34:25;;;;;;;0.88;0.85;;;1.80;99.90;;;;;;5114646;27;20074;-85
2022/01/21 00:36:51;;;;;;;1.98;0.68;;;1.80;99.90;;;;;;5114269;27;20027;-85
2022/01/21 00:39:22;;;;;;;2.88;0.82;;;1.80;99.90;;;;;;5097616;28;20064;-85
2022/01/21 00:42:05;;;;;;;0.95;0.70;;;1.80;99.90;;;;;;5097583;27;20074;-84
2022/01/21 00:44:31;;;;;;;1.13;0.57;;;1.80;99.90;;;;;;5097615;28;20043;-85
2022/01/21 00:47:02;;;;;;;0.50;0.50;;;1.80;99.90;;;;;;5113771;28;20035;-85
2022/01/21 00:49:37;;;;;;;0.50;0.50;;;1.70;99.90;;;;;;5097351;28;20484;-85
2022/01/21 00:52:12;;;;;;;0.32;0.32;;;2.30;99.90;;;;;;5098166;27;20053;-85
2022/01/21 00:54:43;;;;;;;0.60;0.60;;;1.70;99.90;;;;;;5101330;27;20455;-85
2022/01/21 00:57:12;;;;;;;0.40;0.40;;;2.40;99.90;;;;;;5117822;27;20031;-86
2022/01/21 00:59:37;;;;;;;0.40;0.40;;;1.70;99.90;;;;;;5101083;27;20525;-85
2022/01/21 01:02:08;;;;;;;4.32;1.25;;;1.50;99.90;;;;;;5100769;27;20047;-86
2022/01/21 01:04:49;;;;;;;1.85;0.77;;;2.10;99.90;;;;;;5100585;27;20567;-85
2022/01/21 01:07:24;;;;;;;6.88;0.88;;;1.40;99.90;;;;;;5100180;27;20122;-85
2022/01/21 01:09:57;;;;;;;1.87;0.73;;;1.40;99.90;;;;;;5100866;27;20096;-85
2022/01/21 01:20:41;;;;;;;1.38;0.55;;;1.30;99.90;;;;;;5118273;27;20043;-85
2022/01/21 01:24:00;;;;;;;1.05;0.90;;;1.30;99.90;;;;;;5101110;27;20047;-85
2022/01/21 01:29:08;;;;;;;1.67;0.47;;;1.20;99.90;;;;;;5117972;27;20062;-85
2022/01/21 01:31:34;;;;;;;0.85;0.55;;;1.20;99.90;;;;;;5100860;27;20043;-85
2022/01/21 01:34:01;;;;;;;2.70;1.90;;;1.30;99.90;;;;;;5100490;27;20084;-85
2022/01/21 01:36:27;;;;;;;1.23;1.05;;;1.30;99.90;;;;;;5099917;27;20050;-85
2022/01/21 01:39:10;;;;;;;2.45;0.85;;;1.20;99.90;;;;;;5100138;27;20491;-85
2022/01/21 01:41:53;;;;;;;1.00;0.60;;;1.30;99.90;;;;;;5100628;27;20039;-85
2022/01/21 01:49:48;;;;;;;0.98;0.68;;;1.30;99.90;;;;;;5117641;27;20046;-85
2022/01/21 01:52:17;;;;;;;0.50;0.50;;;1.30;99.90;;;;;;5100752;27;20559;-85
2022/01/21 01:54:50;;;;;;;3.63;0.80;;;1.40;99.90;;;;;;5100948;27;20495;-85
2022/01/21 01:57:16;;;;;;;9.93;2.47;;;1.40;99.90;;;;;;5100012;27;20609;-85
2022/01/21 01:59:42;;;;;;;1.52;0.68;;;1.40;99.90;;;;;;5100745;27;20140;-85
2022/01/21 02:02:23;;;;;;;0.73;0.50;;;1.50;99.90;;;;;;5100741;27;20031;-85
2022/01/21 02:04:49;;;;;;;1.92;0.90;;;1.50;99.90;;;;;;5100506;27;20845;-85
2022/01/21 02:07:15;;;;;;;3.45;1.42;;;1.50;99.90;;;;;;5099674;27;20393;-85
2022/01/21 02:09:40;;;;;;;0.80;0.80;;;1.50;99.90;;;;;;5099963;27;20034;-85
2022/01/21 02:12:06;;;;;;;0.90;0.75;;;1.60;99.90;;;;;;5082863;27;20035;-85
2022/01/21 02:14:36;;;;;;;0.77;0.77;;;1.60;99.90;;;;;;5099554;27;20072;-85
2022/01/21 02:22:24;;;;;;;2.60;1.60;;;1.40;99.90;;;;;;5116857;27;20039;-85
2022/01/21 02:24:56;;;;;;;1.05;0.88;;;1.40;99.90;;;;;;5100040;27;20039;-85
2022/01/21 02:27:22;;;;;;;0.70;0.70;;;1.30;99.90;;;;;;5099633;27;20476;-85
2022/01/21 02:29:51;;;;;;;0.40;0.40;;;1.20;99.90;;;;;;5100096;27;20444;-85
2022/01/21 02:32:19;;;;;;;0.60;0.60;;;1.20;99.90;;;;;;5099731;27;20035;-85
2022/01/21 02:34:45;;;;;;;0.98;0.88;;;1.20;99.90;;;;;;5100123;27;20084;-85
2022/01/21 02:37:13;;;;;;;0.40;0.40;;;1.10;99.90;;;;;;5117594;27;20031;-85
2022/01/21 02:39:38;;;;;;;1.42;1.08;;;1.10;99.90;;;;;;5100856;27;20066;-85
2022/01/21 02:42:05;;;;;;;0.55;0.55;;;1.10;99.90;;;;;;5100867;27;20508;-85
2022/01/21 02:44:30;;;;;;;0.50;0.50;;;1.10;99.90;;;;;;5100795;27;20058;-85
2022/01/21 02:46:59;;;;;;;1.40;1.02;;;1.10;99.90;;;;;;5117438;27;20031;-85
2022/01/21 02:49:26;;;;;;;1.50;1.40;;;1.10;99.90;;;;;;5100844;27;20054;-85
2022/01/21 02:51:53;;;;;;;0.45;0.45;;;1.10;99.90;;;;;;5100944;27;20585;-85
2022/01/21 02:54:18;;;;;;;0.45;0.45;;;1.10;99.90;;;;;;5100855;27;20039;-85
2022/01/21 02:56:44;;;;;;;0.40;0.40;;;1.20;99.90;;;;;;5099972;27;20027;-85
2022/01/21 02:59:10;;;;;;;0.40;0.40;;;1.20;99.90;;;;;;5117864;27;20484;-85
2022/01/21 03:01:38;;;;;;;1.05;0.60;;;1.20;99.90;;;;;;5100847;27;20031;-85
2022/01/21 03:04:06;;;;;;;5.78;1.05;;;1.20;99.90;;;;;;5100343;27;20114;-85
2022/01/21 03:06:32;;;;;;;0.88;0.57;;;1.20;99.90;;;;;;5117024;27;20050;-85
2022/01/21 03:08:59;;;;;;;0.60;0.60;;;1.20;99.90;;;;;;5117576;27;20043;-85
2022/01/21 03:11:26;;;;;;;9.07;1.60;;;1.20;99.90;;;;;;5100410;27;20039;-85
2022/01/21 03:13:52;;;;;;;0.50;0.50;;;1.20;99.90;;;;;;5100073;27;20497;-85
2022/01/21 03:16:18;;;;;;;0.55;0.50;;;1.10;99.90;;;;;;5099160;27;20047;-85
2022/01/21 03:18:44;;;;;;;0.40;0.40;;;1.10;99.90;;;;;;5099973;27;20087;-85
2022/01/21 03:21:15;;;;;;;0.40;0.40;;;1.10;99.90;;;;;;5100164;27;20035;-85
2022/01/21 03:23:46;;;;;;;0.60;0.60;;;1.00;99.90;;;;;;5099972;27;20071;-85
2022/01/21 03:26:14;;;;;;;0.57;0.57;;;1.00;99.90;;;;;;5099599;27;20039;-85
2022/01/21 03:28:41;;;;;;;1.30;0.65;;;1.00;99.90;;;;;;5117102;27;20122;-85
2022/01/21 03:31:07;;;;;;;0.45;0.45;;;1.00;99.90;;;;;;5099869;27;20035;-85
2022/01/21 03:33:32;;;;;;;0.50;0.50;;;0.90;99.90;;;;;;5099714;27;20042;-85
2022/01/21 03:35:58;;;;;;;1.63;0.80;;;0.90;99.90;;;;;;5099966;27;20126;-85
2022/01/21 03:38:26;;;;;;;0.75;0.75;;;1.00;99.90;;;;;;5116482;27;20477;-85
2022/01/21 03:40:52;;;;;;;1.00;0.45;;;0.90;99.90;;;;;;5099957;27;20529;-85
2022/01/21 03:43:19;;;;;;;0.50;0.50;;;1.00;99.90;;;;;;5099522;27;20046;-85
2022/01/21 03:45:45;;;;;;;0.40;0.40;;;1.00;99.90;;;;;;5099542;27;20095;-85
2022/01/21 03:48:10;;;;;;;5.90;0.85;;;1.00;99.90;;;;;;5099059;27;20429;-85
2022/01/21 03:50:36;;;;;;;0.40;0.40;;;0.90;99.90;;;;;;5082728;27;20538;-85
2022/01/21 03:53:03;;;;;;;0.40;0.40;;;1.00;99.90;;;;;;5099502;27;20047;-85
2022/01/21 03:55:30;;;;;;;0.60;0.60;;;1.00;99.90;;;;;;5099461;27;20046;-85
2022/01/21 03:57:57;;;;;;;0.77;0.70;;;0.90;99.90;;;;;;5098971;27;20031;-86
2022/01/21 04:00:27;;;;;;;0.40;0.40;;;0.90;99.90;;;;;;5099380;27;20038;-85
2022/01/21 04:02:53;;;;;;;11.80;0.70;;;0.90;99.90;;;;;;5099187;27;20049;-85
2022/01/21 04:05:19;;;;;;;1.00;0.90;;;0.90;99.90;;;;;;5099267;27;20411;-85
2022/01/21 04:07:45;;;;;;;0.50;0.50;;;0.90;99.90;;;;;;5115822;27;20475;-85
2022/01/21 04:10:11;;;;;;;0.82;0.50;;;0.90;99.90;;;;;;5099195;27;20086;-85
2022/01/21 04:12:36;;;;;;;4.03;0.65;;;0.90;99.90;;;;;;5099214;27;20502;-84
2022/01/21 04:15:03;;;;;;;0.65;0.60;;;0.90;99.90;;;;;;5099104;27;20091;-85
2022/01/21 04:17:29;;;;;;;0.50;0.50;;;0.90;99.90;;;;;;5115286;27;20031;-85
2022/01/21 04:19:54;;;;;;;2.67;1.95;;;0.80;99.90;;;;;;5099047;27;20089;-85
2022/01/21 04:22:21;;;;;;;2.22;1.83;;;0.90;99.90;;;;;;5116243;27;20480;-85
2022/01/21 04:24:48;;;;;;;0.68;0.68;;;0.80;99.90;;;;;;5098942;27;20126;-84
2022/01/21 04:27:14;;;;;;;2.25;0.73;;;0.90;99.90;;;;;;5114915;28;20042;-84
2022/01/21 04:29:40;;;;;;;4.45;0.82;;;0.80;99.90;;;;;;5098866;27;20085;-85
2022/01/21 04:32:06;;;;;;;1.10;0.60;;;0.80;99.90;;;;;;5098901;27;20074;-85
2022/01/21 04:34:32;;;;;;;0.40;0.40;;;0.70;99.90;;;;;;5098953;27;20118;-85
2022/01/21 04:36:59;;;;;;;0.40;0.40;;;1.70;99.90;;;;;;5115422;27;20071;-85
2022/01/21 04:39:30;;;;;;;1.95;0.80;;;0.70;99.90;;;;;;5115818;28;20074;-85
2022/01/21 04:47:24;;;;;;;1.85;0.50;;;0.80;99.90;;;;;;5115023;28;20039;-85
2022/01/21 04:49:50;;;;;;;1.30;0.63;;;0.80;99.90;;;;;;5098889;28;20038;-85
2022/01/21 04:52:16;;;;;;;0.52;0.52;;;0.80;99.90;;;;;;5115826;28;20039;-85
2022/01/21 04:54:42;;;;;;;1.10;0.70;;;0.90;99.90;;;;;;5115823;28;20118;-85
2022/01/21 04:57:08;;;;;;;0.50;0.50;;;1.00;99.90;;;;;;5098593;28;20042;-85
2022/01/21 04:59:35;;;;;;;1.30;0.75;;;0.90;99.90;;;;;;5098743;28;20034;-85
2022/01/21 05:02:01;;;;;;;2.45;0.68;;;0.90;99.90;;;;;;5098248;28;20043;-85
2022/01/21 05:04:26;;;;;;;1.17;0.50;;;0.90;99.90;;;;;;5093571;28;20038;-85
2022/01/21 05:06:54;;;;;;;1.95;0.70;;;0.80;99.90;;;;;;5077237;28;20043;-85
2022/01/21 05:09:22;;;;;;;0.40;0.40;;;0.80;99.90;;;;;;5077643;28;20040;-85
2022/01/21 05:11:48;;;;;;;1.48;0.80;;;0.80;99.90;;;;;;5094381;28;20047;-86
2022/01/21 05:14:24;;;;;;;0.50;0.50;;;0.80;99.90;;;;;;5077667;28;20039;-85
2022/01/21 05:17:00;;;;;;;1.50;0.80;;;1.00;99.90;;;;;;5077215;28;20428;-85
2022/01/21 05:19:27;;;;;;;0.95;0.80;;;0.70;99.90;;;;;;5077404;28;20032;-85
2022/01/21 05:21:55;;;;;;;0.43;0.43;;;0.80;99.90;;;;;;5094404;28;20189;-85
2022/01/21 05:24:21;;;;;;;2.90;0.88;;;0.80;99.90;;;;;;5080178;27;20123;-85
2022/01/21 05:26:56;;;;;;;0.70;0.40;;;0.80;99.90;;;;;;5103996;28;20039;-85
2022/01/21 05:29:24;;;;;;;0.40;0.40;;;0.80;99.90;;;;;;5114955;28;20039;-85
2022/01/21 05:31:51;;;;;;;1.00;0.52;;;0.80;99.90;;;;;;5097674;28;20050;-85
2022/01/21 05:34:16;;;;;;;5.05;0.60;;;0.80;99.90;;;;;;5097503;28;20045;-85
2022/01/21 05:36:42;;;;;;;0.60;0.60;;;0.80;99.90;;;;;;5097542;28;20121;-85
2022/01/21 05:39:09;;;;;;;1.38;1.15;;;0.80;99.90;;;;;;5100637;27;20031;-85
2022/01/21 05:41:36;;;;;;;2.78;0.73;;;0.80;99.90;;;;;;5101438;27;20031;-85
2022/01/21 05:44:07;;;;;;;1.13;0.50;;;0.80;99.90;;;;;;5101278;27;20039;-85
2022/01/21 05:46:54;;;;;;;1.02;0.60;;;0.80;99.90;;;;;;5100894;27;20088;-85
2022/01/21 05:49:19;;;;;;;1.20;0.95;;;0.80;99.90;;;;;;5121971;27;20045;-85
2022/01/21 05:51:44;;;;;;;0.55;0.55;;;0.80;99.90;;;;;;5105335;27;20122;-85
2022/01/21 05:54:10;;;;;;;2.80;0.65;;;0.80;99.90;;;;;;5101529;27;20575;-85
2022/01/21 05:56:38;;;;;;;1.35;0.55;;;0.90;99.90;;;;;;5100721;27;20039;-85
2022/01/21 05:59:07;;;;;;;0.77;0.70;;;0.90;99.90;;;;;;5101200;27;20403;-85
2022/01/21 06:01:34;;;;;;;2.25;0.95;;;0.90;99.90;;;;;;5101066;27;20031;-85
2022/01/21 06:04:02;;;;;;;1.25;0.60;;;0.90;99.90;;;;;;5100874;27;20103;-85
2022/01/21 06:06:29;;;;;;;0.80;0.80;;;0.90;99.90;;;;;;5100634;27;20514;-85
2022/01/21 06:08:55;;;;;;;0.50;0.50;;;0.90;99.90;;;;;;5118114;27;20038;-85
2022/01/21 06:11:20;;;;;;;0.40;0.40;;;0.90;99.90;;;;;;5102396;27;20039;-85
2022/01/21 06:13:48;;;;;;;5.78;1.25;;;0.90;99.90;;;;;;5116724;27;20031;-85
2022/01/21 06:16:13;;;;;;;0.40;0.40;;;1.00;99.90;;;;;;5129338;27;20053;-85
2022/01/21 06:18:39;;;;;;;1.67;0.50;;;1.00;99.90;;;;;;5120944;27;20060;-85
2022/01/21 06:21:05;;;;;;;4.68;1.30;;;1.30;99.90;;;;;;5104102;27;20034;-86
2022/01/21 06:23:30;;;;;;;3.33;0.57;;;1.30;99.90;;;;;;5121184;27;20034;-85
2022/01/21 06:25:55;;;;;;;1.10;0.73;;;1.30;99.90;;;;;;5121795;27;20039;-85
2022/01/21 06:28:22;;;;;;;0.70;0.70;;;1.30;99.90;;;;;;5120508;27;20046;-85
2022/01/21 06:30:49;;;;;;;3.53;1.13;;;1.30;99.90;;;;;;5121109;27;20492;-85
2022/01/21 06:33:14;;;;;;;4.80;1.35;;;1.30;99.90;;;;;;5120793;27;20091;-85
2022/01/21 06:35:40;;;;;;;4.22;0.50;;;1.30;99.90;;;;;;5120681;27;20437;-85
2022/01/21 06:38:06;;;;;;;2.35;1.50;;;1.20;99.90;;;;;;5111713;27;20033;-86
2022/01/21 06:40:31;;;;;;;0.40;0.40;;;1.20;99.90;;;;;;5100448;27;20042;-85
2022/01/21 06:43:01;;;;;;;1.23;0.82;;;1.30;99.90;;;;;;5100473;27;20083;-85
2022/01/21 06:45:27;;;;;;;1.17;1.08;;;1.30;99.90;;;;;;5100037;27;20035;-85
2022/01/21 06:47:53;;;;;;;3.50;0.82;;;1.30;99.90;;;;;;5099718;27;20039;-84
2022/01/21 06:50:18;;;;;;;8.35;1.30;;;1.30;99.90;;;;;;5116238;27;20054;-85
2022/01/21 06:52:44;;;;;;;1.42;0.93;;;1.30;99.90;;;;;;5117017;27;20510;-85
2022/01/21 06:55:09;;;;;;;5.15;0.95;;;1.20;99.90;;;;;;5117270;27;20042;-85
2022/01/21 06:57:38;;;;;;;0.60;0.60;;;1.20;99.90;;;;;;5099562;27;20035;-85
2022/01/21 07:00:07;;;;;;;1.33;0.63;;;1.10;99.90;;;;;;5103960;27;20033;-85
2022/01/21 07:02:33;;;;;;;7.03;0.77;;;1.10;99.90;;;;;;5107702;27;20047;-85
2022/01/21 07:04:59;;;;;;;0.88;0.68;;;1.10;99.90;;;;;;5100114;27;20071;-85
2022/01/21 07:07:24;;;;;;;0.40;0.40;;;1.00;99.90;;;;;;5099205;27;20046;-86
2022/01/21 07:09:50;;;;;;;1.92;0.90;;;1.00;99.90;;;;;;5099732;27;20039;-85
2022/01/21 07:12:16;;;;;;;2.25;0.52;;;1.00;99.90;;;;;;5100004;27;20507;-85
2022/01/21 07:14:41;;;;;;;7.35;1.40;;;1.00;99.90;;;;;;5099520;27;20066;-85
2022/01/21 07:17:07;;;;;;;1.50;0.90;;;0.90;99.90;;;;;;5098410;27;20114;-85
2022/01/21 07:19:33;;;;;;;4.45;0.98;;;0.90;99.90;;;;;;5116175;27;20042;-85
2022/01/21 07:21:58;;;;;;;8.38;0.98;;;0.90;99.90;;;;;;5099079;27;20091;-85
2022/01/21 07:24:24;;;;;;;2.30;0.80;;;0.90;99.90;;;;;;5131089;27;20073;-85
2022/01/21 07:26:50;;;;;;;0.40;0.40;;;0.90;99.90;;;;;;5119009;27;20398;-85
2022/01/21 07:29:15;;;;;;;4.75;1.30;;;0.90;99.90;;;;;;5119474;27;20038;-85
2022/01/21 07:31:41;;;;;;;1.45;1.13;;;0.90;99.90;;;;;;5119581;27;20034;-85
2022/01/21 07:34:06;;;;;;;5.50;1.42;;;0.90;99.90;;;;;;5119278;27;20099;-85
2022/01/21 07:36:33;;;;;;;2.28;0.82;;;0.90;99.90;;;;;;5095394;28;20480;-85
2022/01/21 07:39:00;;;;;;;0.40;0.40;;;0.80;99.90;;;;;;5122032;27;20092;-85
2022/01/21 07:41:25;;;;;;;0.60;0.60;;;0.90;99.90;;;;;;5078299;28;20031;-85
2022/01/21 07:43:52;;;;;;;0.30;0.30;;;0.80;99.90;;;;;;5078469;28;20096;-85
2022/01/21 07:46:19;;;;;;;0.40;0.40;;;0.80;99.90;;;;;;5077768;28;20454;-85
2022/01/21 07:48:44;;;;;;;0.65;0.60;;;0.80;99.90;;;;;;5109495;27;20035;-85
2022/01/21 07:51:10;;;;;;;0.40;0.40;;;0.80;99.90;;;;;;5099127;27;20377;-86
2022/01/21 07:53:36;;;;;;;0.55;0.50;;;0.90;99.90;;;;;;5098673;27;20043;-85
2022/01/21 07:56:02;;;;;;;0.73;0.52;;;0.90;99.90;;;;;;5098427;27;20028;-86
2022/01/21 07:58:28;;;;;;;0.55;0.50;;;1.20;99.90;;;;;;5098891;27;20080;-86
2022/01/21 08:00:54;;;;;;;6.70;0.90;;;1.00;99.90;;;;;;5098743;27;20038;-86
2022/01/21 08:03:20;;;;;;;0.40;0.40;;;1.00;99.90;;;;;;5098501;27;20445;-86
2022/01/21 08:05:46;;;;;;;0.60;0.52;;;1.10;99.90;;;;;;5098594;27;20039;-86
2022/01/21 08:08:12;;;;;;;3.05;0.68;;;1.00;99.90;;;;;;5098218;27;20159;-86
2022/01/21 08:10:38;;;;;;;1.38;0.50;;;1.10;99.90;;;;;;5116228;27;20080;-86
2022/01/21 08:13:03;;;;;;;1.77;0.95;;;1.10;99.90;;;;;;5105982;27;20043;-86
2022/01/21 08:15:29;;;;;;;0.40;0.40;;;1.10;99.90;;;;;;5098749;27;20035;-86
2022/01/21 08:17:55;;;;;;;0.60;0.60;;;1.20;99.90;;;;;;5097817;27;20080;-85
2022/01/21 08:20:20;;;;;;;0.40;0.40;;;1.20;99.90;;;;;;5098399;27;20042;-86
2022/01/21 08:22:46;;;;;;;1.45;0.40;;;1.20;99.90;;;;;;5098459;27;20134;-86
2022/01/21 08:25:12;;;;;;;0.50;0.50;;;1.20;99.90;;;;;;5098573;27;20129;-85
2022/01/21 08:27:37;;;;;;;2.15;1.60;;;1.20;99.90;;;;;;5097831;27;20039;-86
2022/01/21 08:30:07;;;;;;;1.25;0.95;;;1.20;99.90;;;;;;5098436;27;20084;-86
2022/01/21 08:32:33;;;;;;;0.60;0.50;;;1.20;99.90;;;;;;5098033;27;20039;-86
2022/01/21 08:35:00;;;;;;;3.10;1.00;;;1.20;99.90;;;;;;5119155;27;20035;-86
2022/01/21 08:37:26;;;;;;;0.40;0.40;;;1.30;99.90;;;;;;5101791;28;20080;-86
2022/01/21 08:39:52;;;;;;;3.80;1.42;;;1.20;99.90;;;;;;5098383;27;20039;-85
2022/01/21 08:42:17;;;;;;;0.50;0.50;;;1.30;99.90;;;;;;5098006;28;20043;-86
2022/01/21 08:44:43;;;;;;;0.40;0.40;;;1.40;99.90;;;;;;5115085;27;20052;-86
2022/01/21 08:47:09;;;;;;;0.40;0.40;;;1.50;99.90;;;;;;5114748;28;20627;-86
2022/01/21 08:49:35;;;;;;;0.40;0.40;;;1.50;99.90;;;;;;5098275;28;20475;-86
2022/01/21 08:52:01;;;;;;;0.40;0.40;;;1.60;99.90;;;;;;5098419;28;20039;-86
2022/01/21 08:54:28;;;;;;;1.55;1.02;;;1.80;99.90;;;;;;5097837;28;20064;-86
2022/01/21 08:56:55;;;;;;;0.30;0.30;;;1.70;99.90;;;;;;5097663;28;20408;-86
2022/01/21 08:59:21;;;;;;;1.95;0.73;;;1.70;99.90;;;;;;5127582;27;20440;-86
2022/01/21 09:01:51;;;;;;;0.68;0.63;;;1.70;99.90;;;;;;5117107;27;20117;-85
2022/01/21 09:04:17;;;;;;;0.30;0.30;;;1.70;99.90;;;;;;5117950;27;20038;-85
2022/01/21 09:06:43;;;;;;;4.47;1.30;;;1.70;99.90;;;;;;5117933;27;20038;-86
2022/01/21 09:09:09;;;;;;;0.50;0.50;;;1.80;99.90;;;;;;5118439;27;20038;-85
2022/01/21 09:11:34;;;;;;;15.65;1.77;;;1.90;99.90;;;;;;5135622;27;20054;-86
2022/01/21 09:14:01;;;;;;;6.90;1.08;;;1.90;99.90;;;;;;5121103;27;20395;-86
2022/01/21 09:16:27;;;;;;;4.78;2.35;;;2.00;99.90;;;;;;5122076;27;20048;-85
2022/01/21 09:18:57;;;;;;;1.25;0.73;;;2.10;99.90;;;;;;5122266;27;20461;-85
2022/01/21 09:21:26;;;;;;;4.72;0.98;;;2.10;99.90;;;;;;5122250;27;20031;-85
2022/01/21 09:23:53;;;;;;;3.15;0.88;;;2.20;99.90;;;;;;5113609;27;20034;-86
2022/01/21 09:26:21;;;;;;;0.52;0.52;;;2.30;99.90;;;;;;5138753;27;20046;-86
2022/01/21 09:28:47;;;;;;;1.85;0.73;;;2.40;99.90;;;;;;5122238;27;20086;-85
2022/01/21 09:31:14;;;;;;;0.40;0.40;;;3.00;99.90;;;;;;5121929;27;20104;-86
2022/01/21 09:33:40;;;;;;;2.13;0.50;;;2.50;99.90;;;;;;5121958;27;20388;-86
2022/01/21 09:36:08;;;;;;;0.55;0.55;;;2.60;99.90;;;;;;5121957;27;20540;-86
2022/01/21 09:38:34;;;;;;;0.40;0.40;;;2.60;99.90;;;;;;5121941;27;20077;-86
2022/01/21 09:41:00;;;;;;;0.90;0.80;;;2.70;99.90;;;;;;5121986;27;20475;-86
2022/01/21 09:43:26;;;;;;;0.40;0.40;;;2.80;99.90;;;;;;5121781;27;20031;-86
2022/01/21 09:45:54;;;;;;;0.40;0.40;;;2.80;99.90;;;;;;5135266;27;20043;-86
2022/01/21 09:48:30;;;;;;;4.97;1.20;;;2.80;99.90;;;;;;5109187;27;20039;-86
2022/01/21 09:50:59;;;;;;;2.45;1.15;;;2.90;99.90;;;;;;5115423;27;20071;-86
2022/01/21 09:53:27;;;;;;;4.22;1.05;;;2.90;99.90;;;;;;5080680;28;20032;-86
2022/01/21 09:55:56;;;;;;;0.40;0.40;;;3.00;99.90;;;;;;5080520;28;20036;-87
2022/01/21 09:58:22;;;;;;;0.50;0.50;;;3.00;99.90;;;;;;5097484;28;20077;-87
2022/01/21 10:00:48;;;;;;;0.40;0.40;;;3.10;99.90;;;;;;5097886;28;20071;-86
2022/01/21 10:03:15;;;;;;;0.63;0.63;;;3.10;99.90;;;;;;5080568;28;20050;-87
2022/01/21 10:05:46;;;;;;;4.13;1.15;;;3.10;99.90;;;;;;5080750;28;20484;-87
2022/01/21 10:08:13;;;;;;;0.77;0.77;;;3.10;99.90;;;;;;5094755;27;20049;-87
2022/01/21 10:10:43;;;;;;;0.30;0.30;;;3.20;99.90;;;;;;5130303;27;20035;-86
2022/01/21 10:13:18;;;;;;;0.40;0.40;;;3.20;99.90;;;;;;5118201;27;20496;-87
2022/01/21 10:15:45;;;;;;;0.30;0.30;;;3.30;99.90;;;;;;5100421;27;20099;-86
2022/01/21 10:18:16;;;;;;;1.15;1.00;;;3.40;99.90;;;;;;5099910;27;20506;-87
2022/01/21 10:21:04;;;;;;;3.13;1.85;;;3.40;99.90;;;;;;5100254;27;20035;-86
2022/01/21 10:23:31;;;;;;;0.40;0.40;;;3.50;99.90;;;;;;5100028;27;20441;-86
2022/01/21 10:26:05;;;;;;;0.80;0.45;;;3.50;99.90;;;;;;5099032;27;20043;-86
2022/01/21 10:28:33;;;;;;;0.50;0.50;;;3.60;99.90;;;;;;5099990;27;20134;-87
2022/01/21 10:31:09;;;;;;;0.50;0.50;;;3.60;99.90;;;;;;5100130;27;20031;-87
2022/01/21 10:33:46;;;;;;;5.47;1.40;;;3.70;99.90;;;;;;5103985;27;20480;-86
2022/01/21 10:36:34;;;;;;;3.60;1.55;;;3.80;99.90;;;;;;5103740;27;20031;-86
2022/01/21 10:39:17;;;;;;;2.20;1.17;;;3.90;99.90;;;;;;5130860;27;20121;-87
2022/01/21 10:41:45;;;;;;;1.38;1.00;;;4.00;99.90;;;;;;5120605;27;20045;-86
2022/01/21 10:44:12;;;;;;;3.25;1.30;;;4.10;99.90;;;;;;5120250;27;20066;-86
2022/01/21 10:46:40;;;;;;;2.50;1.08;;;4.30;99.90;;;;;;5119904;27;20049;-85
2022/01/21 10:49:11;;;;;;;3.20;1.85;;;4.40;99.90;;;;;;5120042;27;20079;-87
2022/01/21 10:51:39;;;;;;;4.38;1.67;;;4.50;99.90;;;;;;5121000;27;20078;-86
2022/01/21 10:54:20;;;;;;;12.30;1.27;;;4.60;99.90;;;;;;5120369;27;20066;-85
2022/01/21 10:57:22;;;;;;;12.73;1.85;;;4.70;99.90;;;;;;5134687;27;20440;-86
2022/01/21 11:00:01;;;;;;;6.07;1.13;;;4.80;99.90;;;;;;5014441;28;20060;-86
2022/01/21 11:02:47;;;;;;;8.65;2.13;;;4.90;99.90;;;;;;5109715;27;20448;-86
2022/01/21 11:05:29;;;;;;;11.63;1.88;;;5.00;99.90;;;;;;5119792;27;20035;-85
2022/01/21 11:08:02;;;;;;;2.53;1.33;;;5.10;99.90;;;;;;5119786;27;20033;-86
2022/01/21 11:10:40;;;;;;;3.70;1.25;;;5.20;99.90;;;;;;5119529;27;20035;-86
2022/01/21 11:13:11;;;;;;;9.02;1.85;;;5.40;99.90;;;;;;5104740;27;20119;-86
2022/01/21 11:15:46;;;;;;;13.02;1.90;;;5.50;99.90;;;;;;5096283;27;20042;-86
2022/01/21 11:18:15;;;;;;;6.80;1.23;;;5.60;99.90;;;;;;5115585;27;20484;-86
2022/01/21 11:20:45;;;;;;;1.60;0.95;;;5.70;99.90;;;;;;5111692;27;20074;-86
2022/01/21 11:23:26;;;;;;;1.48;0.65;;;5.80;99.90;;;;;;5119874;27;20043;-86
2022/01/21 11:26:03;;;;;;;6.57;1.10;;;5.80;99.90;;;;;;5078772;28;20043;-86
2022/01/21 11:29:03;;;;;;;0.45;0.45;;;5.90;99.90;;;;;;5078913;28;20135;-86
2022/01/21 11:31:29;;;;;;;1.05;0.95;;;5.90;99.90;;;;;;5078727;28;20043;-86
2022/01/21 11:33:55;;;;;;;1.30;0.82;;;5.90;99.90;;;;;;5078458;28;20480;-86
2022/01/21 11:36:21;;;;;;;5.80;0.85;;;5.90;99.90;;;;;;5094387;28;20127;-86
2022/01/21 11:38:48;;;;;;;10.90;1.02;;;5.90;99.90;;;;;;5078505;28;20437;-86
2022/01/21 11:41:15;;;;;;;14.13;2.15;;;5.80;99.90;;;;;;5078245;28;20035;-86
2022/01/21 11:43:49;;;;;;;2.25;0.85;;;5.80;99.90;;;;;;5089619;27;20104;-85
2022/01/21 11:49:00;;;;;;;9.07;1.40;;;5.90;99.90;;;;;;5115782;27;20404;-86
2022/01/21 11:51:32;;;;;;;1.23;0.65;;;6.00;99.90;;;;;;5098539;27;20441;-86
2022/01/21 11:54:05;;;;;;;3.53;1.05;;;6.00;99.90;;;;;;5115534;27;20066;-86
2022/01/21 11:56:42;;;;;;;3.25;1.13;;;6.00;99.90;;;;;;5097866;27;20035;-86
2022/01/21 11:59:33;;;;;;;8.85;1.08;;;6.00;99.90;;;;;;5115216;27;20122;-86
2022/01/21 12:01:59;;;;;;;10.88;2.05;;;6.10;99.90;;;;;;5098809;27;20468;-86
2022/01/21 12:04:31;;;;;;;6.72;0.90;;;6.10;99.90;;;;;;5098032;27;20039;-86
2022/01/21 12:06:58;;;;;;;1.55;0.50;;;6.00;99.90;;;;;;5114824;27;20649;-85
2022/01/21 12:09:56;;;;;;;4.00;1.00;;;6.00;99.90;;;;;;5106317;27;20071;-86
2022/01/21 12:12:23;;;;;;;2.40;1.08;;;6.00;99.90;;;;;;5098003;27;20130;-86
2022/01/21 12:14:55;;;;;;;6.30;1.25;;;5.90;99.90;;;;;;5115473;27;20031;-86
2022/01/21 12:17:47;;;;;;;0.70;0.70;;;6.00;99.90;;;;;;5098017;27;20039;-86
2022/01/21 12:20:12;;;;;;;8.27;1.50;;;6.00;99.90;;;;;;5098171;27;20559;-86
2022/01/21 12:22:38;;;;;;;4.13;1.48;;;6.00;99.90;;;;;;5097928;27;20047;-86
2022/01/21 12:25:08;;;;;;;6.32;2.38;;;6.00;99.90;;;;;;5097956;27;20476;-86
2022/01/21 12:27:35;;;;;;;2.72;1.02;;;6.00;99.90;;;;;;5097629;27;20043;-86
2022/01/21 12:30:27;;;;;;;1.85;0.93;;;6.00;99.90;;;;;;5099772;27;20087;-86
2022/01/21 12:33:01;;;;;;;1.42;0.63;;;6.00;99.90;;;;;;5108894;27;20031;-86
2022/01/21 12:35:28;;;;;;;3.22;0.60;;;6.10;99.90;;;;;;5097981;27;20046;-86
2022/01/21 12:40:55;;;;;;;5.65;1.15;;;6.00;99.90;;;;;;5094567;28;20043;-85
2022/01/21 12:44:00;;;;;;;3.53;1.00;;;6.10;99.90;;;;;;5079846;28;20088;-85
2022/01/21 12:46:25;;;;;;;1.75;0.80;;;6.20;99.90;;;;;;5114891;27;20038;-86
2022/01/21 12:48:51;;;;;;;4.22;0.85;;;6.20;99.90;;;;;;5134416;27;20047;-86
2022/01/21 12:57:07;;;;;;;2.25;0.95;;;6.20;99.90;;;;;;5118232;28;20041;-86
2022/01/21 12:59:33;;;;;;;4.97;1.38;;;6.20;99.90;;;;;;5097446;28;20039;-86
2022/01/21 13:02:05;;;;;;;1.40;0.60;;;6.20;99.90;;;;;;5097564;28;20122;-86
2022/01/21 13:04:51;;;;;;;6.75;1.13;;;6.30;99.90;;;;;;5097400;28;20046;-86
2022/01/21 13:07:33;;;;;;;3.88;0.95;;;6.30;99.90;;;;;;5114204;28;20039;-86
2022/01/21 13:10:22;;;;;;;12.93;1.65;;;6.30;99.90;;;;;;5114466;28;20040;-86
2022/01/21 13:16:02;;;;;;;0.93;0.45;;;6.20;99.90;;;;;;5114591;28;20111;-86
2022/01/21 13:18:36;;;;;;;6.70;1.52;;;6.20;99.90;;;;;;5105903;27;20082;-85
2022/01/21 13:21:11;;;;;;;9.45;1.90;;;6.20;99.90;;;;;;5119194;28;20039;-86
2022/01/21 13:23:56;;;;;;;4.20;0.77;;;6.20;99.90;;;;;;5097548;28;20043;-86
2022/01/21 13:26:30;;;;;;;;;;;6.20;99.90;;;;;;5097312;28;20815;-86
2022/01/21 13:29:08;;;;;;;6.40;2.92;;;6.20;99.90;;;;;;5097521;28;20352;-87
2022/01/21 13:31:48;;;;;;;6.72;1.35;;;6.20;99.90;;;;;;5097390;28;20046;-86
2022/01/21 13:34:17;;;;;;;2.00;1.08;;;6.20;99.90;;;;;;5097006;28;20092;-86
2022/01/21 13:36:44;;;;;;;3.63;0.88;;;6.30;99.90;;;;;;5097168;28;20103;-86
2022/01/21 13:39:16;;;;;;;0.90;0.80;;;6.20;99.90;;;;;;5096951;28;20039;-86
2022/01/21 13:42:06;;;;;;;9.73;0.70;;;6.20;99.90;;;;;;5105709;27;20495;-86
2022/01/21 13:44:52;;;;;;;9.48;1.85;;;6.30;99.90;;;;;;5113672;27;20041;-86
2022/01/21 13:47:48;;;;;;;3.55;1.42;;;6.30;99.90;;;;;;5117105;27;20035;-86
2022/01/21 13:50:19;;;;;;;1.17;0.85;;;6.20;99.90;;;;;;5117515;27;20038;-86
2022/01/21 13:52:51;;;;;;;9.60;1.55;;;6.30;99.90;;;;;;5117334;27;20475;-86
2022/01/21 13:55:25;;;;;;;1.05;0.55;;;6.30;99.90;;;;;;5100124;28;20484;-86
2022/01/21 13:57:52;;;;;;;7.53;1.38;;;6.30;99.90;;;;;;5114934;27;20608;-86
2022/01/21 14:00:33;;;;;;;8.88;1.65;;;6.30;99.90;;;;;;5120182;27;20875;-86
2022/01/21 14:03:07;;;;;;;0.95;0.65;;;6.30;99.90;;;;;;5138096;27;20380;-86